Bern, Switzerland
Current Conditions -  °F | °C
As of 6:50 PM on Saturday 20 Dec 2014 (Local Time) from LSZB Reporting Station
Broken Clouds Broken Clouds  
Wind Chill: 34°   Ceiling: 4000
Heat Index: 41°   Visibility: 6mi
Dew Point: 32°   Wind: 13mph
Humidity: 70%   Direction: 290°WNW
Pressure: 30.39"   Gusts: NA
Location:  46.95°N, 7.44°E
Report Text: LSZB 201750Z 29011KT 9999 BKN040 05/M00 Q1029 NOSIG
Loading
Personal Weather Stations






























Interactive Weather Map New forecast layout! Learn more

10-Day Weather Forecast

Advertisements
Track Severe Weather on mobile